sensor_id;sensor_type;location;lat;lon;timestamp;temperature;humidity
70051;SHT30;57391;51.306;22.680;2024-01-27T00:01:37;2.55;80.76
70051;SHT30;57391;51.306;22.680;2024-01-27T00:03:39;2.55;80.79
70051;SHT30;57391;51.306;22.680;2024-01-27T00:05:41;2.54;80.85
70051;SHT30;57391;51.306;22.680;2024-01-27T00:07:43;2.55;80.90
70051;SHT30;57391;51.306;22.680;2024-01-27T00:09:45;2.54;80.93
70051;SHT30;57391;51.306;22.680;2024-01-27T00:11:46;2.54;80.97
70051;SHT30;57391;51.306;22.680;2024-01-27T00:13:48;2.54;81.04
70051;SHT30;57391;51.306;22.680;2024-01-27T00:15:50;2.54;81.03
70051;SHT30;57391;51.306;22.680;2024-01-27T00:17:52;2.55;81.10
70051;SHT30;57391;51.306;22.680;2024-01-27T00:19:54;2.55;81.10
70051;SHT30;57391;51.306;22.680;2024-01-27T00:21:56;2.56;81.20
70051;SHT30;57391;51.306;22.680;2024-01-27T00:23:58;2.56;81.20
70051;SHT30;57391;51.306;22.680;2024-01-27T00:26:02;2.56;81.20
70051;SHT30;57391;51.306;22.680;2024-01-27T00:28:04;2.55;81.20
70051;SHT30;57391;51.306;22.680;2024-01-27T00:30:07;2.55;81.20
70051;SHT30;57391;51.306;22.680;2024-01-27T00:32:09;2.55;81.29
70051;SHT30;57391;51.306;22.680;2024-01-27T00:34:11;2.56;81.30
70051;SHT30;57391;51.306;22.680;2024-01-27T00:36:12;2.56;81.31
70051;SHT30;57391;51.306;22.680;2024-01-27T00:38:15;2.55;81.35
70051;SHT30;57391;51.306;22.680;2024-01-27T00:40:16;2.55;81.38
70051;SHT30;57391;51.306;22.680;2024-01-27T00:42:18;2.55;81.39
70051;SHT30;57391;51.306;22.680;2024-01-27T00:44:25;2.55;81.43
70051;SHT30;57391;51.306;22.680;2024-01-27T00:46:26;2.54;81.44
70051;SHT30;57391;51.306;22.680;2024-01-27T00:48:28;2.54;81.40
70051;SHT30;57391;51.306;22.680;2024-01-27T00:50:30;2.53;81.49
70051;SHT30;57391;51.306;22.680;2024-01-27T00:52:31;2.52;81.57
70051;SHT30;57391;51.306;22.680;2024-01-27T00:54:33;2.50;81.60
70051;SHT30;57391;51.306;22.680;2024-01-27T00:56:35;2.50;81.65
70051;SHT30;57391;51.306;22.680;2024-01-27T00:58:36;2.50;81.70
70051;SHT30;57391;51.306;22.680;2024-01-27T01:00:38;2.51;81.70
70051;SHT30;57391;51.306;22.680;2024-01-27T01:02:40;2.50;81.70
70051;SHT30;57391;51.306;22.680;2024-01-27T01:04:42;2.49;81.75
70051;SHT30;57391;51.306;22.680;2024-01-27T01:06:44;2.48;81.80
70051;SHT30;57391;51.306;22.680;2024-01-27T01:08:46;2.46;81.84
70051;SHT30;57391;51.306;22.680;2024-01-27T01:10:48;2.46;81.93
70051;SHT30;57391;51.306;22.680;2024-01-27T01:12:49;2.45;82.00
70051;SHT30;57391;51.306;22.680;2024-01-27T01:14:51;2.45;82.04
70051;SHT30;57391;51.306;22.680;2024-01-27T01:16:54;2.43;82.06
70051;SHT30;57391;51.306;22.680;2024-01-27T01:18:55;2.41;82.14
70051;SHT30;57391;51.306;22.680;2024-01-27T01:20:57;2.40;82.25
70051;SHT30;57391;51.306;22.680;2024-01-27T01:22:59;2.39;82.30
70051;SHT30;57391;51.306;22.680;2024-01-27T01:25:00;2.40;82.31
70051;SHT30;57391;51.306;22.680;2024-01-27T01:27:02;2.39;82.28
70051;SHT30;57391;51.306;22.680;2024-01-27T01:29:05;2.41;82.31
70051;SHT30;57391;51.306;22.680;2024-01-27T01:31:06;2.42;82.35
70051;SHT30;57391;51.306;22.680;2024-01-27T01:33:10;2.43;82.35
70051;SHT30;57391;51.306;22.680;2024-01-27T01:35:12;2.45;82.32
70051;SHT30;57391;51.306;22.680;2024-01-27T01:37:14;2.47;82.30
70051;SHT30;57391;51.306;22.680;2024-01-27T01:39:16;2.48;82.25
70051;SHT30;57391;51.306;22.680;2024-01-27T01:41:17;2.48;82.30
70051;SHT30;57391;51.306;22.680;2024-01-27T01:43:19;2.48;82.40
70051;SHT30;57391;51.306;22.680;2024-01-27T01:45:21;2.49;82.43
70051;SHT30;57391;51.306;22.680;2024-01-27T01:47:23;2.50;82.61
70051;SHT30;57391;51.306;22.680;2024-01-27T01:49:25;2.52;82.70
70051;SHT30;57391;51.306;22.680;2024-01-27T01:51:28;2.54;82.82
70051;SHT30;57391;51.306;22.680;2024-01-27T01:53:30;2.56;83.10
70051;SHT30;57391;51.306;22.680;2024-01-27T01:55:32;2.57;83.25
70051;SHT30;57391;51.306;22.680;2024-01-27T01:57:35;2.58;83.50
70051;SHT30;57391;51.306;22.680;2024-01-27T01:59:37;2.60;83.66
70051;SHT30;57391;51.306;22.680;2024-01-27T02:01:41;2.63;83.84
70051;SHT30;57391;51.306;22.680;2024-01-27T02:04:04;2.65;83.99
70051;SHT30;57391;51.306;22.680;2024-01-27T02:06:05;2.70;84.24
70051;SHT30;57391;51.306;22.680;2024-01-27T02:08:07;2.71;84.41
70051;SHT30;57391;51.306;22.680;2024-01-27T02:10:13;2.76;84.43
70051;SHT30;57391;51.306;22.680;2024-01-27T02:12:17;2.78;84.49
70051;SHT30;57391;51.306;22.680;2024-01-27T02:14:19;2.81;84.60
70051;SHT30;57391;51.306;22.680;2024-01-27T02:16:21;2.82;84.63
70051;SHT30;57391;51.306;22.680;2024-01-27T02:18:23;2.85;84.64
70051;SHT30;57391;51.306;22.680;2024-01-27T02:20:24;2.89;84.70
70051;SHT30;57391;51.306;22.680;2024-01-27T02:22:27;2.92;84.84
70051;SHT30;57391;51.306;22.680;2024-01-27T02:24:28;2.94;84.94
70051;SHT30;57391;51.306;22.680;2024-01-27T02:26:30;2.98;84.97
70051;SHT30;57391;51.306;22.680;2024-01-27T02:28:32;3.00;84.96
70051;SHT30;57391;51.306;22.680;2024-01-27T02:30:34;3.03;84.89
70051;SHT30;57391;51.306;22.680;2024-01-27T02:32:36;3.05;84.81
70051;SHT30;57391;51.306;22.680;2024-01-27T02:34:38;3.08;84.79
70051;SHT30;57391;51.306;22.680;2024-01-27T02:36:39;3.10;84.72
70051;SHT30;57391;51.306;22.680;2024-01-27T02:38:41;3.12;84.80
70051;SHT30;57391;51.306;22.680;2024-01-27T02:40:43;3.14;84.82
70051;SHT30;57391;51.306;22.680;2024-01-27T02:42:45;3.14;84.82
70051;SHT30;57391;51.306;22.680;2024-01-27T02:44:46;3.15;84.71
70051;SHT30;57391;51.306;22.680;2024-01-27T02:46:48;3.17;84.78
70051;SHT30;57391;51.306;22.680;2024-01-27T02:48:50;3.20;84.78
70051;SHT30;57391;51.306;22.680;2024-01-27T02:50:51;3.21;84.65
70051;SHT30;57391;51.306;22.680;2024-01-27T02:52:53;3.23;84.49
70051;SHT30;57391;51.306;22.680;2024-01-27T02:54:55;3.26;84.40
70051;SHT30;57391;51.306;22.680;2024-01-27T02:56:57;3.29;84.26
70051;SHT30;57391;51.306;22.680;2024-01-27T02:58:59;3.32;84.19
70051;SHT30;57391;51.306;22.680;2024-01-27T03:01:00;3.34;84.01
70051;SHT30;57391;51.306;22.680;2024-01-27T03:03:02;3.35;83.89
70051;SHT30;57391;51.306;22.680;2024-01-27T03:05:04;3.35;83.80
70051;SHT30;57391;51.306;22.680;2024-01-27T03:07:06;3.37;83.80
70051;SHT30;57391;51.306;22.680;2024-01-27T03:09:08;3.37;83.74
70051;SHT30;57391;51.306;22.680;2024-01-27T03:11:11;3.36;83.75
70051;SHT30;57391;51.306;22.680;2024-01-27T03:13:13;3.37;83.82
70051;SHT30;57391;51.306;22.680;2024-01-27T03:15:15;3.37;83.89
70051;SHT30;57391;51.306;22.680;2024-01-27T03:17:16;3.37;83.90
70051;SHT30;57391;51.306;22.680;2024-01-27T03:19:18;3.37;83.89
70051;SHT30;57391;51.306;22.680;2024-01-27T03:21:20;3.38;83.93
70051;SHT30;57391;51.306;22.680;2024-01-27T03:23:21;3.38;83.94
70051;SHT30;57391;51.306;22.680;2024-01-27T03:25:24;3.39;83.90
70051;SHT30;57391;51.306;22.680;2024-01-27T03:27:27;3.39;83.75
70051;SHT30;57391;51.306;22.680;2024-01-27T03:29:28;3.41;83.64
70051;SHT30;57391;51.306;22.680;2024-01-27T03:31:30;3.42;83.44
70051;SHT30;57391;51.306;22.680;2024-01-27T03:33:33;3.43;83.35
70051;SHT30;57391;51.306;22.680;2024-01-27T03:35:34;3.45;83.20
70051;SHT30;57391;51.306;22.680;2024-01-27T03:37:36;3.47;83.05
70051;SHT30;57391;51.306;22.680;2024-01-27T03:39:40;3.50;82.89
70051;SHT30;57391;51.306;22.680;2024-01-27T03:41:43;3.51;82.74
70051;SHT30;57391;51.306;22.680;2024-01-27T03:43:45;3.53;82.66
70051;SHT30;57391;51.306;22.680;2024-01-27T03:45:47;3.53;82.60
70051;SHT30;57391;51.306;22.680;2024-01-27T03:47:49;3.54;82.53
70051;SHT30;57391;51.306;22.680;2024-01-27T03:49:50;3.56;82.51
70051;SHT30;57391;51.306;22.680;2024-01-27T03:51:52;3.57;82.50
70051;SHT30;57391;51.306;22.680;2024-01-27T03:53:54;3.59;82.44
70051;SHT30;57391;51.306;22.680;2024-01-27T03:55:55;3.60;82.38
70051;SHT30;57391;51.306;22.680;2024-01-27T03:58:03;3.61;82.44
70051;SHT30;57391;51.306;22.680;2024-01-27T04:00:05;3.62;82.41
70051;SHT30;57391;51.306;22.680;2024-01-27T04:02:08;3.63;82.36
70051;SHT30;57391;51.306;22.680;2024-01-27T04:04:10;3.64;82.36
70051;SHT30;57391;51.306;22.680;2024-01-27T04:06:11;3.67;82.35
70051;SHT30;57391;51.306;22.680;2024-01-27T04:08:13;3.68;82.30
70051;SHT30;57391;51.306;22.680;2024-01-27T04:10:15;3.69;82.26
70051;SHT30;57391;51.306;22.680;2024-01-27T04:12:16;3.70;82.19
70051;SHT30;57391;51.306;22.680;2024-01-27T04:14:18;3.71;82.13
70051;SHT30;57391;51.306;22.680;2024-01-27T04:16:20;3.69;82.05
70051;SHT30;57391;51.306;22.680;2024-01-27T04:18:22;3.69;82.10
70051;SHT30;57391;51.306;22.680;2024-01-27T04:20:24;3.70;82.10
70051;SHT30;57391;51.306;22.680;2024-01-27T04:22:25;3.70;82.05
70051;SHT30;57391;51.306;22.680;2024-01-27T04:24:27;3.69;81.96
70051;SHT30;57391;51.306;22.680;2024-01-27T04:26:29;3.67;81.90
70051;SHT30;57391;51.306;22.680;2024-01-27T04:28:30;3.66;81.80
70051;SHT30;57391;51.306;22.680;2024-01-27T04:30:32;3.65;81.81
70051;SHT30;57391;51.306;22.680;2024-01-27T04:32:35;3.66;81.81
70051;SHT30;57391;51.306;22.680;2024-01-27T04:34:37;3.64;81.72
70051;SHT30;57391;51.306;22.680;2024-01-27T04:36:39;3.64;81.69
70051;SHT30;57391;51.306;22.680;2024-01-27T04:38:43;3.62;81.61
70051;SHT30;57391;51.306;22.680;2024-01-27T04:40:45;3.62;81.56
70051;SHT30;57391;51.306;22.680;2024-01-27T04:42:46;3.61;81.59
70051;SHT30;57391;51.306;22.680;2024-01-27T04:44:48;3.60;81.57
70051;SHT30;57391;51.306;22.680;2024-01-27T04:46:50;3.60;81.50
70051;SHT30;57391;51.306;22.680;2024-01-27T04:48:52;3.59;81.46
70051;SHT30;57391;51.306;22.680;2024-01-27T04:50:53;3.58;81.44
70051;SHT30;57391;51.306;22.680;2024-01-27T04:52:55;3.59;81.53
70051;SHT30;57391;51.306;22.680;2024-01-27T04:54:57;3.58;81.53
70051;SHT30;57391;51.306;22.680;2024-01-27T04:56:59;3.57;81.53
70051;SHT30;57391;51.306;22.680;2024-01-27T04:59:01;3.57;81.53
70051;SHT30;57391;51.306;22.680;2024-01-27T05:01:02;3.57;81.50
70051;SHT30;57391;51.306;22.680;2024-01-27T05:03:04;3.57;81.51
70051;SHT30;57391;51.306;22.680;2024-01-27T05:05:08;3.57;81.56
70051;SHT30;57391;51.306;22.680;2024-01-27T05:07:10;3.57;81.60
70051;SHT30;57391;51.306;22.680;2024-01-27T05:09:12;3.58;81.64
70051;SHT30;57391;51.306;22.680;2024-01-27T05:11:15;3.59;81.61
70051;SHT30;57391;51.306;22.680;2024-01-27T05:13:26;3.60;81.65
70051;SHT30;57391;51.306;22.680;2024-01-27T05:15:28;3.59;81.60
70051;SHT30;57391;51.306;22.680;2024-01-27T05:17:29;3.60;81.59
70051;SHT30;57391;51.306;22.680;2024-01-27T05:19:31;3.61;81.59
70051;SHT30;57391;51.306;22.680;2024-01-27T05:21:33;3.61;81.49
70051;SHT30;57391;51.306;22.680;2024-01-27T05:23:35;3.62;81.49
70051;SHT30;57391;51.306;22.680;2024-01-27T05:25:37;3.62;81.44
70051;SHT30;57391;51.306;22.680;2024-01-27T05:27:39;3.64;81.34
70051;SHT30;57391;51.306;22.680;2024-01-27T05:29:41;3.65;81.26
70051;SHT30;57391;51.306;22.680;2024-01-27T05:31:43;3.65;81.20
70051;SHT30;57391;51.306;22.680;2024-01-27T05:33:44;3.66;81.11
70051;SHT30;57391;51.306;22.680;2024-01-27T05:35:46;3.67;81.06
70051;SHT30;57391;51.306;22.680;2024-01-27T05:37:48;3.69;81.03
70051;SHT30;57391;51.306;22.680;2024-01-27T05:39:50;3.69;80.86
70051;SHT30;57391;51.306;22.680;2024-01-27T05:41:52;3.69;80.84
70051;SHT30;57391;51.306;22.680;2024-01-27T05:43:54;3.69;80.76
70051;SHT30;57391;51.306;22.680;2024-01-27T05:45:58;3.70;80.71
70051;SHT30;57391;51.306;22.680;2024-01-27T05:47:59;3.70;80.70
70051;SHT30;57391;51.306;22.680;2024-01-27T05:50:01;3.70;80.68
70051;SHT30;57391;51.306;22.680;2024-01-27T05:52:04;3.69;80.63
70051;SHT30;57391;51.306;22.680;2024-01-27T05:54:06;3.69;80.60
70051;SHT30;57391;51.306;22.680;2024-01-27T05:56:09;3.68;80.60
70051;SHT30;57391;51.306;22.680;2024-01-27T05:58:11;3.68;80.59
70051;SHT30;57391;51.306;22.680;2024-01-27T06:00:12;3.67;80.55
70051;SHT30;57391;51.306;22.680;2024-01-27T06:02:15;3.66;80.60
70051;SHT30;57391;51.306;22.680;2024-01-27T06:04:19;3.67;80.60
70051;SHT30;57391;51.306;22.680;2024-01-27T06:06:20;3.66;80.59
70051;SHT30;57391;51.306;22.680;2024-01-27T06:08:22;3.66;80.60
70051;SHT30;57391;51.306;22.680;2024-01-27T06:10:24;3.65;80.65
70051;SHT30;57391;51.306;22.680;2024-01-27T06:12:26;3.65;80.70
70051;SHT30;57391;51.306;22.680;2024-01-27T06:14:27;3.65;80.70
70051;SHT30;57391;51.306;22.680;2024-01-27T06:16:29;3.64;80.75
70051;SHT30;57391;51.306;22.680;2024-01-27T06:18:31;3.63;80.81
70051;SHT30;57391;51.306;22.680;2024-01-27T06:20:32;3.62;80.90
70051;SHT30;57391;51.306;22.680;2024-01-27T06:22:34;3.61;81.00
70051;SHT30;57391;51.306;22.680;2024-01-27T06:24:41;3.62;81.01
70051;SHT30;57391;51.306;22.680;2024-01-27T06:26:45;3.61;81.07
70051;SHT30;57391;51.306;22.680;2024-01-27T06:28:49;3.60;81.13
70051;SHT30;57391;51.306;22.680;2024-01-27T06:30:51;3.60;81.11
70051;SHT30;57391;51.306;22.680;2024-01-27T06:32:53;3.59;81.10
70051;SHT30;57391;51.306;22.680;2024-01-27T06:34:55;3.57;81.04
70051;SHT30;57391;51.306;22.680;2024-01-27T06:36:57;3.57;81.14
70051;SHT30;57391;51.306;22.680;2024-01-27T06:38:59;3.57;81.14
70051;SHT30;57391;51.306;22.680;2024-01-27T06:41:01;3.58;81.11
70051;SHT30;57391;51.306;22.680;2024-01-27T06:43:03;3.57;81.21
70051;SHT30;57391;51.306;22.680;2024-01-27T06:45:05;3.58;81.30
70051;SHT30;57391;51.306;22.680;2024-01-27T06:47:07;3.59;81.40
70051;SHT30;57391;51.306;22.680;2024-01-27T06:51:58;3.61;81.41
70051;SHT30;57391;51.306;22.680;2024-01-27T06:54:00;3.61;81.35
70051;SHT30;57391;51.306;22.680;2024-01-27T06:56:02;3.61;81.32
70051;SHT30;57391;51.306;22.680;2024-01-27T06:58:04;3.61;81.36
70051;SHT30;57391;51.306;22.680;2024-01-27T07:00:06;3.62;81.39
70051;SHT30;57391;51.306;22.680;2024-01-27T07:02:11;3.62;81.40
70051;SHT30;57391;51.306;22.680;2024-01-27T07:04:15;3.63;81.32
70051;SHT30;57391;51.306;22.680;2024-01-27T07:06:20;3.62;81.34
70051;SHT30;57391;51.306;22.680;2024-01-27T07:08:26;3.64;81.39
70051;SHT30;57391;51.306;22.680;2024-01-27T07:10:28;3.65;81.36
70051;SHT30;57391;51.306;22.680;2024-01-27T07:12:33;3.65;81.40
70051;SHT30;57391;51.306;22.680;2024-01-27T07:14:35;3.66;81.35
70051;SHT30;57391;51.306;22.680;2024-01-27T07:16:37;3.67;81.30
70051;SHT30;57391;51.306;22.680;2024-01-27T07:18:39;3.68;81.28
70051;SHT30;57391;51.306;22.680;2024-01-27T07:20:41;3.70;81.21
70051;SHT30;57391;51.306;22.680;2024-01-27T07:22:47;3.71;81.10
70051;SHT30;57391;51.306;22.680;2024-01-27T07:24:50;3.71;81.04
70051;SHT30;57391;51.306;22.680;2024-01-27T07:26:55;3.71;80.93
70051;SHT30;57391;51.306;22.680;2024-01-27T07:29:00;3.72;80.82
70051;SHT30;57391;51.306;22.680;2024-01-27T07:31:02;3.74;80.72
70051;SHT30;57391;51.306;22.680;2024-01-27T07:33:04;3.77;80.64
70051;SHT30;57391;51.306;22.680;2024-01-27T07:35:06;3.77;80.51
70051;SHT30;57391;51.306;22.680;2024-01-27T07:37:09;3.80;80.36
70051;SHT30;57391;51.306;22.680;2024-01-27T07:39:11;3.82;80.32
70051;SHT30;57391;51.306;22.680;2024-01-27T07:41:14;3.84;80.21
70051;SHT30;57391;51.306;22.680;2024-01-27T07:43:18;3.86;80.14
70051;SHT30;57391;51.306;22.680;2024-01-27T07:45:20;3.88;80.06
70051;SHT30;57391;51.306;22.680;2024-01-27T07:47:23;3.91;79.99
70051;SHT30;57391;51.306;22.680;2024-01-27T07:49:24;3.94;79.99
70051;SHT30;57391;51.306;22.680;2024-01-27T07:51:26;3.99;79.90
70051;SHT30;57391;51.306;22.680;2024-01-27T07:53:29;4.03;79.79
70051;SHT30;57391;51.306;22.680;2024-01-27T07:55:31;4.05;79.57
70051;SHT30;57391;51.306;22.680;2024-01-27T07:57:35;4.08;79.44
70051;SHT30;57391;51.306;22.680;2024-01-27T07:59:37;4.10;79.29
70051;SHT30;57391;51.306;22.680;2024-01-27T08:01:40;4.12;79.26
70051;SHT30;57391;51.306;22.680;2024-01-27T08:03:42;4.16;79.25
70051;SHT30;57391;51.306;22.680;2024-01-27T08:05:47;4.18;79.19
70051;SHT30;57391;51.306;22.680;2024-01-27T08:07:49;4.20;79.09
70051;SHT30;57391;51.306;22.680;2024-01-27T08:09:51;4.23;79.10
70051;SHT30;57391;51.306;22.680;2024-01-27T08:11:52;4.26;79.05
70051;SHT30;57391;51.306;22.680;2024-01-27T08:13:54;4.30;78.85
70051;SHT30;57391;51.306;22.680;2024-01-27T08:15:56;4.32;78.78
70051;SHT30;57391;51.306;22.680;2024-01-27T08:17:58;4.33;78.74
70051;SHT30;57391;51.306;22.680;2024-01-27T08:20:00;4.35;78.61
70051;SHT30;57391;51.306;22.680;2024-01-27T08:22:01;4.36;78.60
70051;SHT30;57391;51.306;22.680;2024-01-27T08:24:03;4.38;78.59
70051;SHT30;57391;51.306;22.680;2024-01-27T08:26:05;4.38;78.51
70051;SHT30;57391;51.306;22.680;2024-01-27T08:28:07;4.39;78.31
70051;SHT30;57391;51.306;22.680;2024-01-27T08:30:11;4.38;78.22
70051;SHT30;57391;51.306;22.680;2024-01-27T08:32:13;4.38;78.29
70051;SHT30;57391;51.306;22.680;2024-01-27T08:34:15;4.36;78.06
70051;SHT30;57391;51.306;22.680;2024-01-27T08:36:17;4.35;78.00
70051;SHT30;57391;51.306;22.680;2024-01-27T08:38:21;4.35;77.93
70051;SHT30;57391;51.306;22.680;2024-01-27T08:40:23;4.33;78.04
70051;SHT30;57391;51.306;22.680;2024-01-27T08:42:25;4.34;78.19
70051;SHT30;57391;51.306;22.680;2024-01-27T08:44:27;4.34;78.13
70051;SHT30;57391;51.306;22.680;2024-01-27T08:46:29;4.34;78.14
70051;SHT30;57391;51.306;22.680;2024-01-27T08:48:31;4.34;78.22
70051;SHT30;57391;51.306;22.680;2024-01-27T08:50:32;4.31;78.24
70051;SHT30;57391;51.306;22.680;2024-01-27T08:52:34;4.32;78.36
70051;SHT30;57391;51.306;22.680;2024-01-27T08:54:36;4.31;78.47
70051;SHT30;57391;51.306;22.680;2024-01-27T08:56:41;4.30;78.54
70051;SHT30;57391;51.306;22.680;2024-01-27T08:58:43;4.29;78.71
70051;SHT30;57391;51.306;22.680;2024-01-27T09:00:45;4.27;78.84
70051;SHT30;57391;51.306;22.680;2024-01-27T09:02:47;4.26;79.09
70051;SHT30;57391;51.306;22.680;2024-01-27T09:04:49;4.25;79.29
70051;SHT30;57391;51.306;22.680;2024-01-27T09:06:51;4.26;79.49
70051;SHT30;57391;51.306;22.680;2024-01-27T09:08:52;4.26;79.60
70051;SHT30;57391;51.306;22.680;2024-01-27T09:10:54;4.26;79.63
70051;SHT30;57391;51.306;22.680;2024-01-27T09:12:56;4.25;79.72
70051;SHT30;57391;51.306;22.680;2024-01-27T09:14:58;4.25;79.81
70051;SHT30;57391;51.306;22.680;2024-01-27T09:17:00;4.24;79.79
70051;SHT30;57391;51.306;22.680;2024-01-27T09:19:02;4.23;79.80
70051;SHT30;57391;51.306;22.680;2024-01-27T09:21:04;4.22;79.78
70051;SHT30;57391;51.306;22.680;2024-01-27T09:23:06;4.24;79.79
70051;SHT30;57391;51.306;22.680;2024-01-27T09:25:08;4.25;79.65
70051;SHT30;57391;51.306;22.680;2024-01-27T09:27:09;4.27;79.61
70051;SHT30;57391;51.306;22.680;2024-01-27T09:29:11;4.29;79.64
70051;SHT30;57391;51.306;22.680;2024-01-27T09:31:13;4.31;79.54
70051;SHT30;57391;51.306;22.680;2024-01-27T09:33:16;4.33;79.34
70051;SHT30;57391;51.306;22.680;2024-01-27T09:35:20;4.33;79.15
70051;SHT30;57391;51.306;22.680;2024-01-27T09:37:22;4.34;79.10
70051;SHT30;57391;51.306;22.680;2024-01-27T09:39:24;4.36;79.11
70051;SHT30;57391;51.306;22.680;2024-01-27T09:41:27;4.39;79.16
70051;SHT30;57391;51.306;22.680;2024-01-27T09:43:35;4.40;78.96
70051;SHT30;57391;51.306;22.680;2024-01-27T09:45:39;4.44;78.95
70051;SHT30;57391;51.306;22.680;2024-01-27T09:47:40;4.47;78.86
70051;SHT30;57391;51.306;22.680;2024-01-27T09:49:45;4.50;78.86
70051;SHT30;57391;51.306;22.680;2024-01-27T09:51:48;4.53;78.80
70051;SHT30;57391;51.306;22.680;2024-01-27T09:53:50;4.53;78.51
70051;SHT30;57391;51.306;22.680;2024-01-27T09:55:53;4.55;78.49
70051;SHT30;57391;51.306;22.680;2024-01-27T09:57:58;4.56;78.51
70051;SHT30;57391;51.306;22.680;2024-01-27T10:00:00;4.59;78.61
70051;SHT30;57391;51.306;22.680;2024-01-27T10:02:03;4.64;78.55
70051;SHT30;57391;51.306;22.680;2024-01-27T10:04:15;4.67;78.56
70051;SHT30;57391;51.306;22.680;2024-01-27T10:06:19;4.70;78.49
70051;SHT30;57391;51.306;22.680;2024-01-27T10:08:21;4.69;78.20
70051;SHT30;57391;51.306;22.680;2024-01-27T10:10:24;4.70;78.28
70051;SHT30;57391;51.306;22.680;2024-01-27T10:12:26;4.70;78.30
70051;SHT30;57391;51.306;22.680;2024-01-27T10:14:42;4.68;78.28
70051;SHT30;57391;51.306;22.680;2024-01-27T10:16:46;4.66;78.49
70051;SHT30;57391;51.306;22.680;2024-01-27T10:19:01;4.66;78.51
70051;SHT30;57391;51.306;22.680;2024-01-27T10:21:16;4.66;78.53
70051;SHT30;57391;51.306;22.680;2024-01-27T10:23:19;4.64;78.51
70051;SHT30;57391;51.306;22.680;2024-01-27T10:25:21;4.63;78.55
70051;SHT30;57391;51.306;22.680;2024-01-27T10:27:25;4.63;78.63
70051;SHT30;57391;51.306;22.680;2024-01-27T10:29:27;4.63;78.79
70051;SHT30;57391;51.306;22.680;2024-01-27T10:31:29;4.63;78.69
70051;SHT30;57391;51.306;22.680;2024-01-27T10:33:34;4.64;78.79
70051;SHT30;57391;51.306;22.680;2024-01-27T10:35:36;4.62;78.80
70051;SHT30;57391;51.306;22.680;2024-01-27T10:37:38;4.62;78.80
70051;SHT30;57391;51.306;22.680;2024-01-27T10:39:41;4.61;78.82
70051;SHT30;57391;51.306;22.680;2024-01-27T10:41:45;4.60;78.86
70051;SHT30;57391;51.306;22.680;2024-01-27T10:43:49;4.61;79.07
70051;SHT30;57391;51.306;22.680;2024-01-27T10:45:56;4.60;79.10
70051;SHT30;57391;51.306;22.680;2024-01-27T10:47:58;4.61;79.13
70051;SHT30;57391;51.306;22.680;2024-01-27T10:50:03;4.59;79.16
70051;SHT30;57391;51.306;22.680;2024-01-27T10:52:11;4.60;79.32
70051;SHT30;57391;51.306;22.680;2024-01-27T10:54:28;4.61;79.44
70051;SHT30;57391;51.306;22.680;2024-01-27T10:56:33;4.63;79.50
70051;SHT30;57391;51.306;22.680;2024-01-27T10:58:35;4.65;79.63
70051;SHT30;57391;51.306;22.680;2024-01-27T11:00:45;4.67;79.51
70051;SHT30;57391;51.306;22.680;2024-01-27T11:02:49;4.67;79.40
70051;SHT30;57391;51.306;22.680;2024-01-27T11:04:56;4.67;79.53
70051;SHT30;57391;51.306;22.680;2024-01-27T11:06:58;4.69;79.66
70051;SHT30;57391;51.306;22.680;2024-01-27T11:09:03;4.71;79.66
70051;SHT30;57391;51.306;22.680;2024-01-27T11:11:06;4.72;79.54
70051;SHT30;57391;51.306;22.680;2024-01-27T11:13:09;4.71;79.60
70051;SHT30;57391;51.306;22.680;2024-01-27T11:15:12;4.71;79.70
70051;SHT30;57391;51.306;22.680;2024-01-27T11:17:14;4.73;79.80
70051;SHT30;57391;51.306;22.680;2024-01-27T11:19:18;4.77;79.90
70051;SHT30;57391;51.306;22.680;2024-01-27T11:21:21;4.79;79.72
70051;SHT30;57391;51.306;22.680;2024-01-27T11:23:31;4.78;79.61
70051;SHT30;57391;51.306;22.680;2024-01-27T11:25:35;4.80;79.69
70051;SHT30;57391;51.306;22.680;2024-01-27T11:27:38;4.80;79.61
70051;SHT30;57391;51.306;22.680;2024-01-27T11:29:48;4.82;79.54
70051;SHT30;57391;51.306;22.680;2024-01-27T11:31:50;4.82;79.50
70051;SHT30;57391;51.306;22.680;2024-01-27T11:33:51;4.82;79.45
70051;SHT30;57391;51.306;22.680;2024-01-27T11:36:04;4.82;79.34
70051;SHT30;57391;51.306;22.680;2024-01-27T11:38:07;4.80;79.40
70051;SHT30;57391;51.306;22.680;2024-01-27T11:40:09;4.80;79.44
70051;SHT30;57391;51.306;22.680;2024-01-27T11:42:12;4.80;79.50
70051;SHT30;57391;51.306;22.680;2024-01-27T11:44:14;4.80;79.60
70051;SHT30;57391;51.306;22.680;2024-01-27T11:46:17;4.81;79.54
70051;SHT30;57391;51.306;22.680;2024-01-27T11:48:19;4.80;79.49
70051;SHT30;57391;51.306;22.680;2024-01-27T11:50:21;4.79;79.39
70051;SHT30;57391;51.306;22.680;2024-01-27T11:52:24;4.79;79.34
70051;SHT30;57391;51.306;22.680;2024-01-27T11:54:26;4.79;79.40
70051;SHT30;57391;51.306;22.680;2024-01-27T11:56:28;4.79;79.40
70051;SHT30;57391;51.306;22.680;2024-01-27T11:58:30;4.80;79.36
70051;SHT30;57391;51.306;22.680;2024-01-27T12:00:32;4.80;79.39
70051;SHT30;57391;51.306;22.680;2024-01-27T12:02:34;4.80;79.35
70051;SHT30;57391;51.306;22.680;2024-01-27T12:04:37;4.80;79.30
70051;SHT30;57391;51.306;22.680;2024-01-27T12:06:42;4.81;79.30
70051;SHT30;57391;51.306;22.680;2024-01-27T12:08:45;4.84;79.26
70051;SHT30;57391;51.306;22.680;2024-01-27T12:10:50;4.84;79.19
70051;SHT30;57391;51.306;22.680;2024-01-27T12:12:53;4.84;78.97
70051;SHT30;57391;51.306;22.680;2024-01-27T12:14:54;4.84;78.94
70051;SHT30;57391;51.306;22.680;2024-01-27T12:16:56;4.83;78.91
70051;SHT30;57391;51.306;22.680;2024-01-27T12:18:58;4.85;78.82
70051;SHT30;57391;51.306;22.680;2024-01-27T12:21:01;4.86;78.80
70051;SHT30;57391;51.306;22.680;2024-01-27T12:23:03;4.85;78.81
70051;SHT30;57391;51.306;22.680;2024-01-27T12:25:12;4.88;78.88
70051;SHT30;57391;51.306;22.680;2024-01-27T12:27:18;4.89;78.76
70051;SHT30;57391;51.306;22.680;2024-01-27T12:29:20;4.91;78.70
70051;SHT30;57391;51.306;22.680;2024-01-27T12:31:23;4.92;78.68
70051;SHT30;57391;51.306;22.680;2024-01-27T12:33:25;4.94;78.47
70051;SHT30;57391;51.306;22.680;2024-01-27T12:35:27;4.95;78.43
70051;SHT30;57391;51.306;22.680;2024-01-27T12:37:30;4.95;78.10
70051;SHT30;57391;51.306;22.680;2024-01-27T12:39:32;4.95;78.03
70051;SHT30;57391;51.306;22.680;2024-01-27T12:41:34;4.98;78.26
70051;SHT30;57391;51.306;22.680;2024-01-27T12:43:36;4.99;78.46
70051;SHT30;57391;51.306;22.680;2024-01-27T12:45:39;5.04;78.72
70051;SHT30;57391;51.306;22.680;2024-01-27T12:47:41;5.09;78.91
70051;SHT30;57391;51.306;22.680;2024-01-27T12:49:43;5.13;78.34
70051;SHT30;57391;51.306;22.680;2024-01-27T12:51:45;5.13;78.00
70051;SHT30;57391;51.306;22.680;2024-01-27T12:53:48;5.14;77.90
70051;SHT30;57391;51.306;22.680;2024-01-27T12:55:50;5.16;77.94
70051;SHT30;57391;51.306;22.680;2024-01-27T12:57:52;5.18;77.90